Time;durP1;ratioP1;P1;durP2;ratioP2;P2;SDS_P1;SDS_P2;PMS_P1;PMS_P2;Temp;Humidity;BMP_temperature;BMP_pressure;BME280_temperature;BME280_humidity;BME280_pressure;Samples;Min_cycle;Max_cycle;Signal;HPM_P1;HPM_P2
2021/10/08 00:01:44;;;;;;;15.45;10.05;;;12.80;99.90;;;;;;4136265;28;20038;-77
2021/10/08 00:03:44;;;;;;;13.10;9.20;;;12.80;99.90;;;;;;4139803;28;20026;-77
2021/10/08 00:05:45;;;;;;;14.88;9.57;;;12.70;99.90;;;;;;4141885;28;20029;-76
2021/10/08 00:07:45;;;;;;;15.52;10.23;;;12.70;99.90;;;;;;4136960;28;20077;-76
2021/10/08 00:09:46;;;;;;;14.90;9.73;;;12.70;99.90;;;;;;4136218;28;20127;-77
2021/10/08 00:11:47;;;;;;;15.05;9.77;;;12.70;99.90;;;;;;4140629;28;20057;-76
2021/10/08 00:13:48;;;;;;;16.83;10.88;;;12.70;99.90;;;;;;4137347;28;20038;-77
2021/10/08 00:15:49;;;;;;;13.75;9.38;;;12.70;99.90;;;;;;4140333;28;21459;-77
2021/10/08 00:17:50;;;;;;;17.48;11.63;;;12.70;99.90;;;;;;4133389;28;20050;-77
2021/10/08 00:19:50;;;;;;;16.25;10.90;;;12.70;99.90;;;;;;4130683;28;20530;-77
2021/10/08 00:21:51;;;;;;;14.57;9.85;;;12.70;99.90;;;;;;4133778;28;20053;-77
2021/10/08 00:23:52;;;;;;;16.25;10.35;;;12.70;99.90;;;;;;4136283;28;20709;-77
2021/10/08 00:25:53;;;;;;;17.75;10.38;;;12.70;99.90;;;;;;4143220;28;20033;-77
2021/10/08 00:27:53;;;;;;;18.60;10.75;;;12.70;99.90;;;;;;4131542;28;20034;-77
2021/10/08 00:29:54;;;;;;;16.75;10.40;;;12.60;99.90;;;;;;4136510;28;20104;-77
2021/10/08 00:31:54;;;;;;;18.27;10.93;;;12.60;99.90;;;;;;4139257;28;20623;-77
2021/10/08 00:33:55;;;;;;;17.40;11.05;;;12.60;99.90;;;;;;4133618;28;20038;-77
2021/10/08 00:35:55;;;;;;;15.38;10.55;;;12.60;99.90;;;;;;4140450;28;20045;-76
2021/10/08 00:37:56;;;;;;;16.10;9.82;;;12.60;99.90;;;;;;4134006;28;20066;-77
2021/10/08 00:39:57;;;;;;;13.75;9.18;;;12.60;99.90;;;;;;4136046;28;20064;-77
2021/10/08 00:41:58;;;;;;;11.85;8.57;;;12.50;99.90;;;;;;4136100;28;20108;-77
2021/10/08 00:43:59;;;;;;;13.73;9.27;;;12.50;99.90;;;;;;4136206;28;20033;-77
2021/10/08 00:46:01;;;;;;;13.48;9.45;;;12.50;99.90;;;;;;4131478;28;20085;-77
2021/10/08 00:48:08;;;;;;;15.38;10.18;;;12.50;99.90;;;;;;4132602;28;20477;-77
2021/10/08 00:50:10;;;;;;;15.02;9.75;;;12.50;99.90;;;;;;4133126;28;20049;-77
2021/10/08 00:52:11;;;;;;;16.40;10.40;;;12.40;99.90;;;;;;4130941;28;20030;-77
2021/10/08 00:54:12;;;;;;;15.30;10.50;;;12.40;99.90;;;;;;4134475;28;20433;-77
2021/10/08 00:56:20;;;;;;;16.10;10.43;;;12.40;99.90;;;;;;4142282;28;20041;-78
2021/10/08 00:58:22;;;;;;;19.67;10.70;;;12.40;99.90;;;;;;4139818;28;20054;-78
2021/10/08 01:00:22;;;;;;;16.03;10.63;;;12.40;99.90;;;;;;4133617;28;20466;-78
2021/10/08 01:02:25;;;;;;;15.15;10.63;;;12.40;99.90;;;;;;4136211;28;20046;-78
2021/10/08 01:04:26;;;;;;;;;;;12.40;99.90;;;;;;4125368;28;20164;-78
2021/10/08 01:06:26;;;;;;;12.57;8.30;;;12.40;99.90;;;;;;4132166;28;19921;-78
2021/10/08 01:08:27;;;;;;;13.88;8.68;;;12.40;99.90;;;;;;4123562;28;20034;-78
2021/10/08 01:10:28;;;;;;;13.48;8.65;;;12.30;99.90;;;;;;4141200;28;20037;-78
2021/10/08 01:12:29;;;;;;;13.07;8.77;;;12.20;99.90;;;;;;4141613;28;20065;-78
2021/10/08 01:14:29;;;;;;;14.73;9.23;;;12.20;99.90;;;;;;4148795;28;20544;-78
2021/10/08 01:16:32;;;;;;;15.30;9.85;;;12.20;99.90;;;;;;4144995;28;20153;-78
2021/10/08 01:18:33;;;;;;;11.82;8.10;;;12.10;99.90;;;;;;4136500;28;20046;-78
2021/10/08 01:20:34;;;;;;;12.52;8.25;;;12.00;99.90;;;;;;4139507;28;20033;-78
2021/10/08 01:22:35;;;;;;;12.00;7.90;;;12.00;99.90;;;;;;4140159;28;20040;-78
2021/10/08 01:24:37;;;;;;;11.77;7.80;;;12.00;99.90;;;;;;4135258;28;20058;-78
2021/10/08 01:26:38;;;;;;;11.90;8.23;;;11.90;99.90;;;;;;4142088;28;20100;-78
2021/10/08 01:28:38;;;;;;;15.77;9.65;;;11.90;99.90;;;;;;4133706;28;20038;-78
2021/10/08 01:30:39;;;;;;;16.98;10.18;;;11.90;99.90;;;;;;4158348;28;20045;-78
2021/10/08 01:32:39;;;;;;;14.95;9.70;;;11.90;99.90;;;;;;4139005;28;20521;-78
2021/10/08 01:34:40;;;;;;;14.50;8.98;;;11.90;99.90;;;;;;4145068;28;20037;-78
2021/10/08 01:36:41;;;;;;;18.05;11.02;;;11.90;99.90;;;;;;4136681;28;20053;-78
2021/10/08 01:38:41;;;;;;;20.00;11.95;;;11.90;99.90;;;;;;4123093;28;20042;-78
2021/10/08 01:40:42;;;;;;;19.08;11.82;;;11.90;99.90;;;;;;4138324;28;20038;-79
2021/10/08 01:42:43;;;;;;;21.27;12.10;;;11.90;99.90;;;;;;4121483;28;20490;-79
2021/10/08 01:44:44;;;;;;;24.65;11.65;;;11.90;99.90;;;;;;4147260;28;20034;-78
2021/10/08 01:46:44;;;;;;;24.05;12.57;;;11.90;99.90;;;;;;4139571;28;20037;-78
2021/10/08 01:48:45;;;;;;;19.15;12.15;;;11.90;99.90;;;;;;4137822;28;20501;-78
2021/10/08 01:50:46;;;;;;;17.15;11.02;;;11.90;99.90;;;;;;4139400;28;20093;-78
2021/10/08 01:52:46;;;;;;;17.38;10.15;;;11.90;99.90;;;;;;4135308;28;20069;-78
2021/10/08 01:54:48;;;;;;;16.83;10.77;;;11.90;99.90;;;;;;4150352;28;20026;-79
2021/10/08 01:56:49;;;;;;;18.35;10.20;;;11.90;99.90;;;;;;4145554;28;20042;-78
2021/10/08 01:58:49;;;;;;;16.48;10.38;;;11.90;99.90;;;;;;4141009;28;20381;-78
2021/10/08 02:00:50;;;;;;;15.20;9.88;;;11.90;99.90;;;;;;4135712;28;20052;-78
2021/10/08 02:02:51;;;;;;;16.90;10.68;;;11.90;99.90;;;;;;4141791;28;20073;-78
2021/10/08 02:04:52;;;;;;;16.08;9.73;;;11.90;99.90;;;;;;4145012;28;20054;-78
2021/10/08 02:06:53;;;;;;;15.88;9.95;;;11.80;99.90;;;;;;4143606;28;20038;-78
2021/10/08 02:08:54;;;;;;;16.60;10.95;;;11.80;99.90;;;;;;4146597;28;20038;-79
2021/10/08 02:10:54;;;;;;;15.65;9.88;;;11.80;99.90;;;;;;4148611;28;20030;-79
2021/10/08 02:12:55;;;;;;;14.32;9.45;;;11.90;99.90;;;;;;4137942;28;20058;-78
2021/10/08 02:14:55;;;;;;;13.85;9.10;;;11.90;99.90;;;;;;4124714;28;20034;-78
2021/10/08 02:16:56;;;;;;;17.45;10.02;;;11.80;99.90;;;;;;4138445;28;20034;-78
2021/10/08 02:18:57;;;;;;;15.55;9.00;;;11.80;99.90;;;;;;4140057;28;20130;-79
2021/10/08 02:20:57;;;;;;;17.23;9.70;;;11.80;99.90;;;;;;4134024;28;20057;-78
2021/10/08 02:22:58;;;;;;;16.20;9.48;;;11.80;99.90;;;;;;4138107;28;20179;-78
2021/10/08 02:24:59;;;;;;;16.30;9.20;;;11.80;99.90;;;;;;4146444;28;20561;-78
2021/10/08 02:26:59;;;;;;;15.60;9.38;;;11.80;99.90;;;;;;4144165;28;20084;-78
2021/10/08 02:29:06;;;;;;;15.27;9.38;;;11.80;99.90;;;;;;4129322;28;20027;-78
2021/10/08 02:31:08;;;;;;;14.18;9.10;;;11.80;99.90;;;;;;4132997;28;20042;-78
2021/10/08 02:33:09;;;;;;;17.23;10.30;;;11.80;99.90;;;;;;4125445;28;20101;-78
2021/10/08 02:35:10;;;;;;;15.23;9.60;;;11.70;99.90;;;;;;4130913;28;20038;-78
2021/10/08 02:37:10;;;;;;;16.77;9.82;;;11.70;99.90;;;;;;4136484;28;20031;-78
2021/10/08 02:39:11;;;;;;;16.50;10.23;;;11.70;99.90;;;;;;4142013;28;20153;-78
2021/10/08 02:41:12;;;;;;;15.13;10.18;;;11.70;99.90;;;;;;4140346;28;20034;-78
2021/10/08 02:43:13;;;;;;;17.67;11.00;;;11.70;99.90;;;;;;4134941;28;20083;-78
2021/10/08 02:45:16;;;;;;;21.13;11.98;;;11.60;99.90;;;;;;4114667;28;20061;-78
2021/10/08 02:47:16;;;;;;;18.92;11.50;;;11.60;99.90;;;;;;4142491;28;20117;-78
2021/10/08 02:49:21;;;;;;;18.13;10.73;;;11.60;99.90;;;;;;4143141;28;20065;-78
2021/10/08 02:51:22;;;;;;;21.00;11.65;;;11.60;99.90;;;;;;4144391;28;20746;-79
2021/10/08 02:53:23;;;;;;;20.90;11.80;;;11.50;99.90;;;;;;4144318;28;20033;-78
2021/10/08 02:55:25;;;;;;;19.27;12.63;;;11.50;99.90;;;;;;4127262;28;20030;-78
2021/10/08 02:57:26;;;;;;;20.33;12.60;;;11.40;99.90;;;;;;4138768;28;20022;-79
2021/10/08 02:59:28;;;;;;;19.55;11.90;;;11.40;99.90;;;;;;4137326;28;20034;-78
2021/10/08 03:01:28;;;;;;;20.23;12.18;;;11.40;99.90;;;;;;4116170;28;20530;-78
2021/10/08 03:03:29;;;;;;;19.25;11.60;;;11.40;99.90;;;;;;4125531;28;20039;-79
2021/10/08 03:05:29;;;;;;;14.70;10.00;;;11.40;99.90;;;;;;4135839;28;20034;-79
2021/10/08 03:07:30;;;;;;;14.27;9.43;;;11.40;99.90;;;;;;4141543;28;20073;-78
2021/10/08 03:09:34;;;;;;;14.75;9.15;;;11.40;99.90;;;;;;4128797;28;20455;-78
2021/10/08 03:11:36;;;;;;;13.85;9.18;;;11.40;99.90;;;;;;4142754;28;20034;-79
2021/10/08 03:13:38;;;;;;;11.63;7.97;;;11.40;99.90;;;;;;4145436;28;20073;-79
2021/10/08 03:15:39;;;;;;;10.38;7.82;;;11.40;99.90;;;;;;4146204;28;20470;-79
2021/10/08 03:17:40;;;;;;;11.00;7.75;;;11.40;99.90;;;;;;4140416;28;20037;-78
2021/10/08 03:19:41;;;;;;;9.13;7.15;;;11.40;99.90;;;;;;4144106;28;20630;-79
2021/10/08 03:21:41;;;;;;;11.10;8.35;;;11.40;99.90;;;;;;4148281;28;20060;-78
2021/10/08 03:23:42;;;;;;;10.77;8.40;;;11.40;99.90;;;;;;4143860;28;20050;-79
2021/10/08 03:25:43;;;;;;;11.60;8.63;;;11.40;99.90;;;;;;4160221;28;20037;-79
2021/10/08 03:27:43;;;;;;;12.80;9.30;;;11.40;99.90;;;;;;4146430;28;20026;-78
2021/10/08 03:29:44;;;;;;;11.60;8.25;;;11.40;99.90;;;;;;4147427;28;20046;-79
2021/10/08 03:31:44;;;;;;;11.25;8.43;;;11.40;99.90;;;;;;4142131;28;20042;-79
2021/10/08 03:33:45;;;;;;;13.93;9.63;;;11.30;99.90;;;;;;4143749;28;20035;-79
2021/10/08 03:35:46;;;;;;;11.73;8.13;;;11.30;99.90;;;;;;4140347;28;20066;-79
2021/10/08 03:37:56;;;;;;;12.35;8.93;;;11.30;99.90;;;;;;4147681;28;20042;-78
2021/10/08 03:40:08;;;;;;;9.95;7.43;;;11.30;99.90;;;;;;4151170;28;20034;-79
2021/10/08 03:42:13;;;;;;;11.93;7.83;;;11.30;99.90;;;;;;4143723;28;20034;-78
2021/10/08 03:44:14;;;;;;;11.77;8.38;;;11.30;99.90;;;;;;4148963;28;20311;-79
2021/10/08 03:46:15;;;;;;;10.05;7.97;;;11.30;99.90;;;;;;4150217;28;20077;-79
2021/10/08 03:48:33;;;;;;;10.43;7.72;;;11.30;99.90;;;;;;4145214;28;20084;-79
2021/10/08 03:50:33;;;;;;;9.88;7.38;;;11.30;99.90;;;;;;4152279;28;20026;-78
2021/10/08 03:52:34;;;;;;;9.88;7.10;;;11.30;99.90;;;;;;4145567;28;20129;-79
2021/10/08 03:54:35;;;;;;;9.20;7.25;;;11.30;99.90;;;;;;4148800;28;20090;-79
2021/10/08 03:56:36;;;;;;;10.85;7.95;;;11.30;99.90;;;;;;4146741;28;20026;-78
2021/10/08 03:58:37;;;;;;;10.50;7.53;;;11.30;99.90;;;;;;4148325;28;20412;-79
2021/10/08 04:00:37;;;;;;;9.98;7.85;;;11.20;99.90;;;;;;4139641;28;20041;-79
2021/10/08 04:02:38;;;;;;;10.52;8.35;;;11.30;99.90;;;;;;4146486;28;20034;-79
2021/10/08 04:04:39;;;;;;;10.43;7.95;;;11.20;99.90;;;;;;4143604;28;20273;-79
2021/10/08 04:06:40;;;;;;;10.07;8.05;;;11.20;99.90;;;;;;4141698;28;20117;-79
2021/10/08 04:08:41;;;;;;;11.20;8.20;;;11.20;99.90;;;;;;4137091;28;20041;-79
2021/10/08 04:10:42;;;;;;;14.35;8.75;;;11.20;99.90;;;;;;4136241;28;20030;-79
2021/10/08 04:12:42;;;;;;;11.45;8.52;;;11.20;99.90;;;;;;4142276;28;20556;-79
2021/10/08 04:14:43;;;;;;;11.23;7.78;;;11.20;99.90;;;;;;4141829;28;20057;-79
2021/10/08 04:16:43;;;;;;;13.95;9.40;;;11.10;99.90;;;;;;4139329;28;20044;-79
2021/10/08 04:18:44;;;;;;;12.77;9.02;;;11.20;99.90;;;;;;4139660;28;20035;-79
2021/10/08 04:20:45;;;;;;;12.38;8.48;;;11.00;99.90;;;;;;4152325;28;20519;-78
2021/10/08 04:22:46;;;;;;;11.32;8.05;;;11.00;99.90;;;;;;4143584;28;20036;-79
2021/10/08 04:24:46;;;;;;;9.90;7.55;;;11.00;99.90;;;;;;4148268;28;20045;-79
2021/10/08 04:26:47;;;;;;;10.57;7.93;;;11.00;99.90;;;;;;4149443;28;20101;-79
2021/10/08 04:28:51;;;;;;;10.48;7.80;;;11.00;99.90;;;;;;4141703;28;20037;-78
2021/10/08 04:30:51;;;;;;;10.27;7.63;;;11.00;99.90;;;;;;4146118;28;20139;-78
2021/10/08 04:32:53;;;;;;;9.77;7.78;;;11.00;99.90;;;;;;4143236;28;20663;-79
2021/10/08 04:34:53;;;;;;;8.88;6.85;;;11.00;99.90;;;;;;4144457;28;20068;-78
2021/10/08 04:36:55;;;;;;;9.20;6.90;;;11.00;99.90;;;;;;4147656;28;20084;-79
2021/10/08 04:38:55;;;;;;;10.02;7.50;;;11.00;99.90;;;;;;4147462;28;20097;-79
2021/10/08 04:40:56;;;;;;;9.95;7.55;;;11.00;99.90;;;;;;4148604;28;20092;-80
2021/10/08 04:42:57;;;;;;;8.30;6.57;;;11.00;99.90;;;;;;4142231;28;20042;-79
2021/10/08 04:44:57;;;;;;;9.27;6.95;;;11.00;99.90;;;;;;4147731;28;20082;-79
2021/10/08 04:46:59;;;;;;;8.30;6.75;;;11.00;99.90;;;;;;4143500;28;21332;-78
2021/10/08 04:48:59;;;;;;;8.35;6.80;;;11.00;99.90;;;;;;4145356;28;20041;-79
2021/10/08 04:51:00;;;;;;;9.30;7.03;;;11.00;99.90;;;;;;4149716;28;20068;-75
2021/10/08 04:53:16;;;;;;;8.13;6.40;;;11.00;99.90;;;;;;4138486;28;20038;-76
2021/10/08 04:55:19;;;;;;;9.25;6.00;;;11.00;99.90;;;;;;4115883;28;20042;-76
2021/10/08 04:57:19;;;;;;;7.90;6.13;;;11.00;99.90;;;;;;4137684;28;20045;-76
2021/10/08 04:59:20;;;;;;;7.70;5.65;;;11.00;99.90;;;;;;4134910;28;20049;-76
2021/10/08 05:01:21;;;;;;;8.32;6.22;;;11.00;99.90;;;;;;4126857;28;20052;-77
2021/10/08 05:03:21;;;;;;;7.47;5.60;;;10.90;99.90;;;;;;4132375;28;20044;-76
2021/10/08 05:05:23;;;;;;;9.40;6.13;;;11.00;99.90;;;;;;4131295;28;20121;-76
2021/10/08 05:07:24;;;;;;;6.38;5.60;;;10.90;99.90;;;;;;4135729;28;20034;-76
2021/10/08 05:09:24;;;;;;;5.90;5.30;;;10.90;99.90;;;;;;4134068;28;20648;-76
2021/10/08 05:11:25;;;;;;;7.70;5.97;;;10.90;99.90;;;;;;4134933;28;20046;-76
2021/10/08 05:13:25;;;;;;;7.93;5.88;;;10.90;99.90;;;;;;4137418;28;20038;-76
2021/10/08 05:15:28;;;;;;;6.90;5.60;;;10.90;99.90;;;;;;4134725;28;20037;-76
2021/10/08 05:17:29;;;;;;;;;;;10.90;99.90;;;;;;4151608;28;20041;-76
2021/10/08 05:19:29;;;;;;;6.80;5.65;;;10.90;99.90;;;;;;4133930;28;20760;-76
2021/10/08 05:21:30;;;;;;;7.85;6.28;;;10.90;99.90;;;;;;4135210;28;20807;-77
2021/10/08 05:23:30;;;;;;;7.88;6.15;;;10.90;99.90;;;;;;4134439;28;20041;-76
2021/10/08 05:25:31;;;;;;;10.10;6.75;;;10.90;99.90;;;;;;4135924;28;20044;-76
2021/10/08 05:27:32;;;;;;;9.38;6.30;;;10.90;99.90;;;;;;4150544;28;20804;-76
2021/10/08 05:29:32;;;;;;;8.52;6.38;;;10.90;99.90;;;;;;4135371;28;20037;-76
2021/10/08 05:31:33;;;;;;;9.57;6.75;;;10.90;99.90;;;;;;4135078;28;20042;-76
2021/10/08 05:33:34;;;;;;;9.55;6.65;;;10.90;99.90;;;;;;4133044;28;20037;-76
2021/10/08 05:35:34;;;;;;;12.60;6.80;;;10.90;99.90;;;;;;4135363;28;20088;-76
2021/10/08 05:37:35;;;;;;;17.50;7.00;;;10.90;99.90;;;;;;4134763;28;20030;-76
2021/10/08 05:39:36;;;;;;;24.48;8.23;;;10.80;99.90;;;;;;4133916;28;20080;-76
2021/10/08 05:41:36;;;;;;;13.45;7.57;;;10.80;99.90;;;;;;4134112;28;20036;-76
2021/10/08 05:43:37;;;;;;;15.43;7.72;;;10.80;99.90;;;;;;4132133;28;20092;-76
2021/10/08 05:45:37;;;;;;;24.92;12.50;;;10.80;99.90;;;;;;4132348;28;20346;-76
2021/10/08 05:47:38;;;;;;;30.20;14.57;;;10.70;99.90;;;;;;4128941;28;20070;-76
2021/10/08 05:49:39;;;;;;;16.55;9.30;;;10.80;99.90;;;;;;4130136;28;20295;-76
2021/10/08 05:51:40;;;;;;;26.20;15.02;;;10.80;99.90;;;;;;4131303;28;20030;-76
2021/10/08 05:53:41;;;;;;;41.97;22.00;;;10.70;99.90;;;;;;4132283;28;20038;-76
2021/10/08 05:55:41;;;;;;;40.15;23.38;;;10.70;99.90;;;;;;4112099;28;20359;-76
2021/10/08 05:57:42;;;;;;;30.35;18.23;;;10.70;99.90;;;;;;4130945;28;20045;-76
2021/10/08 05:59:44;;;;;;;20.83;13.35;;;10.70;99.90;;;;;;4131491;28;20039;-76
2021/10/08 06:01:44;;;;;;;12.10;8.13;;;10.70;99.90;;;;;;4127627;28;20040;-76
2021/10/08 06:03:45;;;;;;;10.68;6.75;;;10.70;99.90;;;;;;4131243;28;20018;-76
2021/10/08 06:05:45;;;;;;;8.65;6.15;;;10.60;99.90;;;;;;4131019;28;20343;-76
2021/10/08 06:07:46;;;;;;;9.00;5.95;;;10.60;99.90;;;;;;4131275;28;20026;-76
2021/10/08 06:09:47;;;;;;;7.72;5.55;;;10.60;99.90;;;;;;4128345;28;20093;-75
2021/10/08 06:11:47;;;;;;;7.82;5.80;;;10.60;99.90;;;;;;4129980;28;20418;-76
2021/10/08 06:13:48;;;;;;;7.72;5.68;;;10.60;99.90;;;;;;4130474;28;20037;-76
2021/10/08 06:15:48;;;;;;;8.93;6.30;;;10.60;99.90;;;;;;4131553;28;20038;-76
2021/10/08 06:17:49;;;;;;;6.95;5.65;;;10.60;99.90;;;;;;4132342;28;20058;-76
2021/10/08 06:19:50;;;;;;;9.00;6.28;;;10.50;99.90;;;;;;4132056;28;20120;-76
2021/10/08 06:21:50;;;;;;;7.75;5.57;;;10.50;99.90;;;;;;4129610;28;20046;-76
2021/10/08 06:23:51;;;;;;;7.85;5.32;;;10.50;99.90;;;;;;4129958;28;20129;-76
2021/10/08 06:25:51;;;;;;;9.23;5.50;;;10.50;99.90;;;;;;4130533;28;20041;-76
2021/10/08 06:27:52;;;;;;;7.57;5.28;;;10.50;99.90;;;;;;4131050;28;20468;-76
2021/10/08 06:29:52;;;;;;;7.07;4.50;;;10.50;99.90;;;;;;4131300;28;20045;-76
2021/10/08 06:31:53;;;;;;;5.65;4.28;;;10.50;99.90;;;;;;4113594;28;20073;-76
2021/10/08 06:33:54;;;;;;;6.60;4.45;;;10.50;99.90;;;;;;4131761;28;20040;-76
2021/10/08 06:35:54;;;;;;;7.10;4.97;;;10.60;99.90;;;;;;4131242;28;20034;-76
2021/10/08 06:37:55;;;;;;;9.75;6.25;;;10.50;99.90;;;;;;4132119;28;20041;-76
2021/10/08 06:39:55;;;;;;;9.32;6.22;;;10.50;99.90;;;;;;4130080;28;20528;-76
2021/10/08 06:41:56;;;;;;;17.27;7.75;;;10.60;99.90;;;;;;4130240;28;20061;-76
2021/10/08 06:43:57;;;;;;;9.55;6.30;;;10.60;99.90;;;;;;4130263;28;20041;-76
2021/10/08 06:45:58;;;;;;;9.13;5.80;;;10.60;99.90;;;;;;4130629;28;20045;-76
2021/10/08 06:47:58;;;;;;;11.00;6.88;;;10.60;99.90;;;;;;4129183;28;20042;-76
2021/10/08 06:49:59;;;;;;;8.98;6.00;;;10.60;99.90;;;;;;4129493;28;21054;-76
2021/10/08 06:52:00;;;;;;;7.97;5.57;;;10.60;99.90;;;;;;4130828;28;20394;-76
2021/10/08 06:54:01;;;;;;;10.73;6.13;;;10.70;99.90;;;;;;4129597;28;20592;-76
2021/10/08 06:56:01;;;;;;;8.82;5.75;;;10.60;99.90;;;;;;4129015;28;20100;-75
2021/10/08 06:58:03;;;;;;;8.55;5.78;;;10.60;99.90;;;;;;4130649;28;20045;-75
2021/10/08 07:00:06;;;;;;;7.45;5.05;;;10.60;99.90;;;;;;4131348;28;20045;-76
2021/10/08 07:02:07;;;;;;;7.72;5.40;;;10.60;99.90;;;;;;4128436;28;20040;-76
2021/10/08 07:04:07;;;;;;;7.40;5.53;;;10.60;99.90;;;;;;4128809;28;20418;-75
2021/10/08 07:06:08;;;;;;;8.15;5.32;;;10.60;99.90;;;;;;4131008;28;20038;-76
2021/10/08 07:08:09;;;;;;;9.52;5.63;;;10.60;99.90;;;;;;4131465;28;20403;-76
2021/10/08 07:10:10;;;;;;;7.93;5.80;;;10.70;99.90;;;;;;4126832;28;20262;-76
2021/10/08 07:12:11;;;;;;;8.50;5.90;;;10.70;99.90;;;;;;4130316;28;20564;-75
2021/10/08 07:14:12;;;;;;;6.72;5.22;;;10.70;99.90;;;;;;4131120;28;20038;-75
2021/10/08 07:16:13;;;;;;;8.27;5.22;;;10.70;99.90;;;;;;4128583;28;20513;-75
2021/10/08 07:18:16;;;;;;;7.35;5.18;;;10.70;99.90;;;;;;4124115;28;20108;-75
2021/10/08 07:20:23;;;;;;;7.55;5.60;;;10.70;99.90;;;;;;4116057;28;20069;-75
2021/10/08 07:22:23;;;;;;;7.03;5.40;;;10.80;99.90;;;;;;4117930;28;21393;-76
2021/10/08 07:24:24;;;;;;;7.82;5.43;;;10.80;99.90;;;;;;4126258;28;20049;-75
2021/10/08 07:26:30;;;;;;;7.60;5.10;;;10.80;99.90;;;;;;4127881;28;20092;-76
2021/10/08 07:28:30;;;;;;;10.65;6.47;;;10.90;99.90;;;;;;4131698;28;20046;-75
2021/10/08 07:30:31;;;;;;;9.23;6.07;;;10.90;99.90;;;;;;4127154;28;20116;-74
2021/10/08 07:32:32;;;;;;;8.82;5.95;;;10.90;99.90;;;;;;4128613;28;20046;-74
2021/10/08 07:34:33;;;;;;;9.25;6.18;;;11.00;99.90;;;;;;4130793;28;20168;-75
2021/10/08 07:36:34;;;;;;;12.20;7.97;;;11.00;99.90;;;;;;4132247;28;20272;-74
2021/10/08 07:38:35;;;;;;;12.20;7.47;;;11.10;99.90;;;;;;4129344;28;20172;-74
2021/10/08 07:40:35;;;;;;;11.00;7.45;;;11.30;99.90;;;;;;4130568;28;20557;-74
2021/10/08 07:42:36;;;;;;;16.00;9.07;;;11.50;99.90;;;;;;4121011;28;20529;-74
2021/10/08 07:44:37;;;;;;;13.48;8.15;;;11.80;99.90;;;;;;4130772;28;20030;-74
2021/10/08 07:46:38;;;;;;;12.00;8.18;;;12.10;99.90;;;;;;4128369;28;20497;-74
2021/10/08 07:48:39;;;;;;;12.43;7.85;;;12.50;99.90;;;;;;4128186;28;20066;-75
2021/10/08 07:50:39;;;;;;;13.70;7.72;;;12.80;99.90;;;;;;4133116;28;20037;-75
2021/10/08 07:52:41;;;;;;;15.25;8.10;;;13.30;99.90;;;;;;4133325;28;20057;-75
2021/10/08 07:54:42;;;;;;;13.10;8.18;;;13.70;99.90;;;;;;4133944;28;20073;-75
2021/10/08 07:56:43;;;;;;;13.20;7.80;;;14.10;99.90;;;;;;4132709;28;20041;-75
2021/10/08 07:58:43;;;;;;;13.07;8.73;;;14.60;99.90;;;;;;4133413;28;20891;-75
2021/10/08 08:00:44;;;;;;;14.18;9.05;;;15.00;99.90;;;;;;4131787;28;20164;-73
2021/10/08 08:02:44;;;;;;;16.20;8.73;;;15.40;99.90;;;;;;4131682;28;20117;-73
2021/10/08 08:04:45;;;;;;;16.60;9.23;;;15.70;99.90;;;;;;4130044;28;20097;-73
2021/10/08 08:06:46;;;;;;;17.60;9.93;;;16.10;99.90;;;;;;4134388;28;20034;-73
2021/10/08 08:08:46;;;;;;;17.58;10.27;;;16.50;99.90;;;;;;4132365;28;20647;-73
2021/10/08 08:10:48;;;;;;;19.48;10.15;;;16.80;99.90;;;;;;4135014;28;20108;-73
2021/10/08 08:12:49;;;;;;;16.35;10.30;;;17.20;99.90;;;;;;4134621;28;20025;-73
2021/10/08 08:14:51;;;;;;;17.10;10.40;;;17.40;99.90;;;;;;4133574;28;20065;-73
2021/10/08 08:16:52;;;;;;;19.77;10.60;;;17.60;99.90;;;;;;4132064;28;21082;-73
2021/10/08 08:18:52;;;;;;;19.55;11.10;;;17.90;99.90;;;;;;4133831;28;20042;-73
2021/10/08 08:20:53;;;;;;;19.10;10.63;;;18.00;99.90;;;;;;4132711;28;20544;-73
2021/10/08 08:22:54;;;;;;;15.93;10.23;;;18.00;99.90;;;;;;4132376;28;20037;-73
2021/10/08 08:24:54;;;;;;;16.85;9.32;;;18.10;99.90;;;;;;4133603;28;20042;-73
2021/10/08 08:26:55;;;;;;;16.00;9.77;;;18.10;99.90;;;;;;4132049;28;20676;-73
2021/10/08 08:28:56;;;;;;;16.10;9.10;;;18.10;99.90;;;;;;4135506;28;22879;-73
2021/10/08 08:30:56;;;;;;;14.48;8.73;;;18.10;99.90;;;;;;4135890;28;21673;-73
2021/10/08 08:32:57;;;;;;;18.88;9.65;;;18.10;99.90;;;;;;4134647;28;20188;-73
2021/10/08 08:34:59;;;;;;;15.20;9.27;;;18.10;99.90;;;;;;4132159;28;20042;-73
2021/10/08 08:37:00;;;;;;;16.57;8.93;;;18.10;99.90;;;;;;4132508;28;20095;-72
2021/10/08 08:39:06;;;;;;;17.58;8.95;;;18.10;99.90;;;;;;4134302;28;20309;-72
2021/10/08 08:41:06;;;;;;;15.25;9.32;;;18.10;99.90;;;;;;4128892;28;20598;-72
2021/10/08 08:43:07;;;;;;;17.08;9.85;;;18.10;99.90;;;;;;4131620;28;20034;-73
2021/10/08 08:45:08;;;;;;;17.50;9.20;;;18.10;99.90;;;;;;4134746;28;20049;-73
2021/10/08 08:47:14;;;;;;;15.77;9.07;;;18.10;99.90;;;;;;4133707;28;20630;-72
2021/10/08 08:49:15;;;;;;;16.90;10.15;;;18.10;99.90;;;;;;4133225;28;20076;-72
2021/10/08 08:51:16;;;;;;;16.40;8.57;;;18.00;99.90;;;;;;4131824;28;20593;-72
2021/10/08 08:53:21;;;;;;;17.58;9.63;;;18.00;99.90;;;;;;4135224;28;20105;-73
2021/10/08 08:55:22;;;;;;;19.52;9.35;;;18.00;99.90;;;;;;4122284;28;20026;-73
2021/10/08 08:57:23;;;;;;;19.02;9.65;;;17.90;99.90;;;;;;4138474;28;20724;-73
2021/10/08 08:59:23;;;;;;;16.40;9.45;;;17.80;99.90;;;;;;4135588;28;20675;-73
2021/10/08 09:01:24;;;;;;;17.40;9.25;;;17.70;99.90;;;;;;4135227;28;20126;-73
2021/10/08 09:03:25;;;;;;;18.67;10.57;;;17.70;99.90;;;;;;4135688;28;21688;-75
2021/10/08 09:05:29;;;;;;;17.70;10.15;;;17.50;99.90;;;;;;4135269;28;20140;-74
2021/10/08 09:07:35;;;;;;;20.88;10.85;;;17.50;99.90;;;;;;4133021;28;20038;-73
2021/10/08 09:09:36;;;;;;;22.48;10.60;;;17.30;99.90;;;;;;4133193;28;20042;-73
2021/10/08 09:11:37;;;;;;;18.15;9.98;;;17.30;99.90;;;;;;4132102;28;20224;-73
2021/10/08 09:13:38;;;;;;;18.53;10.67;;;17.10;99.90;;;;;;4132373;28;20430;-73
2021/10/08 09:15:51;;;;;;;16.40;9.82;;;17.10;99.90;;;;;;4133382;28;20037;-73
2021/10/08 09:18:09;;;;;;;20.92;10.23;;;17.10;99.90;;;;;;4133282;28;20069;-73
2021/10/08 09:20:19;;;;;;;18.00;9.50;;;17.20;99.90;;;;;;4134342;28;20088;-72
2021/10/08 09:22:21;;;;;;;21.65;10.77;;;17.20;99.90;;;;;;4134808;28;20588;-73
2021/10/08 09:24:22;;;;;;;16.95;9.57;;;17.20;99.90;;;;;;4135852;28;20526;-73
2021/10/08 09:26:25;;;;;;;17.25;9.73;;;17.20;99.90;;;;;;4137451;28;20462;-73
2021/10/08 09:28:26;;;;;;;17.00;10.05;;;17.20;99.90;;;;;;4134082;28;21030;-72
2021/10/08 09:30:35;;;;;;;16.50;9.48;;;17.20;99.90;;;;;;4133863;28;20030;-73
2021/10/08 09:32:48;;;;;;;15.55;9.70;;;17.10;99.90;;;;;;4134542;28;20140;-72
2021/10/08 09:35:04;;;;;;;14.40;8.32;;;17.10;99.90;;;;;;4137334;28;20038;-73
2021/10/08 09:37:06;;;;;;;11.20;6.80;;;17.10;99.90;;;;;;4134199;28;20634;-72
2021/10/08 09:39:27;;;;;;;;;;;17.20;99.90;;;;;;4132932;28;20539;-73
2021/10/08 09:41:36;;;;;;;8.35;5.50;;;17.10;99.90;;;;;;4118150;28;19917;-73
2021/10/08 09:43:36;;;;;;;6.78;5.38;;;17.10;99.90;;;;;;4134478;28;20502;-72
2021/10/08 09:45:52;;;;;;;10.20;5.90;;;17.10;99.90;;;;;;4134510;28;20042;-73
2021/10/08 09:47:59;;;;;;;14.55;6.20;;;17.00;99.90;;;;;;4137783;28;20041;-72
2021/10/08 09:50:12;;;;;;;10.80;6.28;;;17.00;99.90;;;;;;4149674;28;20042;-72
2021/10/08 09:52:30;;;;;;;9.73;5.97;;;16.90;99.90;;;;;;4133118;28;20529;-73
2021/10/08 09:54:50;;;;;;;8.90;4.63;;;16.90;99.90;;;;;;4135284;28;20129;-73
2021/10/08 09:56:59;;;;;;;6.43;4.53;;;16.90;99.90;;;;;;4135645;28;20105;-73
2021/10/08 09:59:02;;;;;;;8.15;5.47;;;16.90;99.90;;;;;;4134510;28;20054;-72
2021/10/08 10:01:07;;;;;;;8.68;5.15;;;16.90;99.90;;;;;;4135004;28;20042;-72
2021/10/08 10:03:11;;;;;;;10.35;5.57;;;17.00;99.90;;;;;;4134045;28;20125;-73
2021/10/08 10:05:12;;;;;;;7.72;5.32;;;17.10;99.90;;;;;;4131087;28;20565;-73
2021/10/08 10:07:15;;;;;;;7.90;5.57;;;17.20;99.90;;;;;;4135279;28;20093;-73
2021/10/08 10:09:19;;;;;;;;;;;17.20;99.90;;;;;;4136867;28;20033;-74
2021/10/08 10:11:25;;;;;;;9.35;5.10;;;17.20;99.90;;;;;;4133781;28;19913;-74
2021/10/08 10:13:30;;;;;;;9.20;5.78;;;17.10;99.90;;;;;;4134880;28;20049;-74
2021/10/08 10:15:34;;;;;;;8.38;5.43;;;17.00;99.90;;;;;;4134691;28;20057;-74
2021/10/08 10:17:37;;;;;;;8.55;5.45;;;16.90;99.90;;;;;;4134898;28;20046;-74
2021/10/08 10:19:43;;;;;;;8.13;5.20;;;17.00;99.90;;;;;;4134898;28;20034;-74
2021/10/08 10:21:44;;;;;;;7.20;4.85;;;17.00;99.90;;;;;;4135203;28;20056;-74
2021/10/08 10:23:45;;;;;;;10.07;5.07;;;17.00;99.90;;;;;;4135199;28;20034;-73
2021/10/08 10:25:47;;;;;;;6.50;4.70;;;17.10;99.90;;;;;;4129874;28;20042;-73
2021/10/08 10:27:48;;;;;;;5.80;4.63;;;17.20;99.90;;;;;;4131933;28;20022;-74